Time;durP1;ratioP1;P1;durP2;ratioP2;P2;SDS_P1;SDS_P2;PMS_P1;PMS_P2;Temp;Humidity;BMP_temperature;BMP_pressure;BME280_temperature;BME280_humidity;BME280_pressure;Samples;Min_cycle;Max_cycle;Signal;HPM_P1;HPM_P2
2022/12/05 00:01:25;;;;;;;217.32;110.40;;;;;;;0.07;79.34;97607.73;1746053;81;25756;-74
2022/12/05 00:03:55;;;;;;;217.43;107.37;;;;;;;0.09;79.33;97611.08;1778414;80;27432;-74
2022/12/05 00:06:23;;;;;;;206.07;105.87;;;;;;;0.09;79.33;97603.61;1757750;81;25792;-72
2022/12/05 00:08:50;;;;;;;216.33;106.78;;;;;;;0.10;79.31;97599.48;1766745;80;25832;-72
2022/12/05 00:11:24;;;;;;;210.65;105.10;;;;;;;0.09;79.32;97590.34;1770372;80;25755;-72
2022/12/05 00:13:53;;;;;;;208.25;108.05;;;;;;;0.08;79.29;97591.31;1779834;80;25823;-75
2022/12/05 00:16:23;;;;;;;216.20;114.55;;;;;;;0.06;79.31;97591.45;1782894;79;27385;-71
2022/12/05 00:18:51;;;;;;;227.00;117.40;;;;;;;0.07;79.35;97591.80;1792624;79;25869;-71
2022/12/05 00:21:24;;;;;;;237.05;118.08;;;;;;;0.06;79.35;97587.47;1787096;80;25882;-72
2022/12/05 00:23:52;;;;;;;226.42;121.37;;;;;;;0.09;79.35;97591.66;1781138;80;26184;-71
2022/12/05 00:26:19;;;;;;;226.52;117.90;;;;;;;0.09;79.32;97587.19;1781586;80;25319;-74
2022/12/05 00:28:46;;;;;;;232.40;118.47;;;;;;;0.11;79.33;97581.75;1781505;80;28179;-72
2022/12/05 00:31:17;;;;;;;216.48;113.92;;;;;;;0.11;79.30;97588.38;1781323;80;25925;-73
2022/12/05 00:33:44;;;;;;;220.73;110.52;;;;;;;0.10;79.24;97584.89;1781436;80;25779;-72
2022/12/05 00:36:16;;;;;;;222.70;111.57;;;;;;;0.09;79.26;97582.38;1781503;80;26140;-73
2022/12/05 00:38:44;;;;;;;212.75;108.30;;;;;;;0.09;79.28;97580.55;1750698;81;25497;-73
2022/12/05 00:41:14;;;;;;;221.35;111.52;;;;;;;0.08;79.28;97576.23;1750439;81;27415;-75
2022/12/05 00:43:41;;;;;;;221.85;111.37;;;;;;;0.06;79.34;97574.69;1689903;84;25832;-74
2022/12/05 00:46:13;;;;;;;211.90;110.12;;;;;;;0.05;79.37;97568.54;1654315;86;25822;-72
2022/12/05 00:48:40;;;;;;;219.28;111.57;;;;;;;0.06;79.37;97582.16;1624268;88;25822;-72
2022/12/05 00:51:17;;;;;;;216.78;113.30;;;;;;;0.06;79.42;97571.55;1624475;88;25792;-73
2022/12/05 00:53:45;;;;;;;219.00;115.17;;;;;;;0.07;79.44;97569.23;1609076;88;27451;-71
2022/12/05 00:56:16;;;;;;;215.68;112.22;;;;;;;0.07;79.46;97569.73;1624296;88;25811;-71
2022/12/05 00:58:44;;;;;;;204.63;109.83;;;;;;;0.10;79.51;97566.80;1623497;88;25828;-72
2022/12/05 01:01:21;;;;;;;212.25;110.88;;;;;;;0.09;79.48;97551.36;1619429;88;26186;-75
2022/12/05 01:03:51;;;;;;;205.27;106.78;;;;;;;0.09;79.47;97555.83;1619314;88;25966;-74
2022/12/05 01:06:18;;;;;;;211.07;110.45;;;;;;;0.09;79.46;97561.98;1619480;88;27630;-72
2022/12/05 01:08:45;;;;;;;214.08;112.80;;;;;;;0.10;79.46;97551.71;1619428;88;25813;-73
2022/12/05 01:11:16;;;;;;;209.18;112.12;;;;;;;0.10;79.45;97550.38;1619503;88;25745;-74
2022/12/05 01:13:42;;;;;;;216.60;114.00;;;;;;;0.11;79.49;97557.38;1619486;88;25379;-72
2022/12/05 01:16:23;;;;;;;213.87;112.83;;;;;;;0.13;79.47;97555.38;1619548;88;25852;-74
2022/12/05 01:18:50;;;;;;;195.12;104.10;;;;;;;0.12;79.46;97552.38;1515814;94;28237;-71
2022/12/05 01:21:17;;;;;;;192.57;99.65;;;;;;;0.12;79.45;97551.05;1495403;94;25890;-73
2022/12/05 01:23:44;;;;;;;177.75;98.87;;;;;;;0.10;79.45;97555.69;1503480;95;25858;-72
2022/12/05 01:26:13;;;;;;;173.30;96.70;;;;;;;0.10;79.42;97550.38;1503254;95;26035;-72
2022/12/05 01:28:40;;;;;;;178.47;98.58;;;;;;;0.09;79.41;97547.37;1503513;95;25877;-74
2022/12/05 01:31:15;;;;;;;184.78;99.52;;;;;;;0.07;79.37;97541.38;1503442;95;27438;-73
2022/12/05 01:33:42;;;;;;;181.78;98.67;;;;;;;0.04;79.36;97545.63;1501294;95;25774;-73
2022/12/05 01:36:11;;;;;;;175.80;96.90;;;;;;;0.01;79.43;97548.56;1493275;95;26181;-72
2022/12/05 01:38:41;;;;;;;178.75;98.62;;;;;;;0.02;79.51;97542.77;1488208;95;25819;-75
2022/12/05 01:41:16;;;;;;;181.67;97.22;;;;;;;0.02;79.50;97536.97;1551536;90;25812;-74
2022/12/05 01:44:03;;;;;;;166.00;97.30;;;;;;;0.02;79.51;97541.44;1552432;91;28241;-72
2022/12/05 01:46:33;;;;;;;182.47;99.30;;;;;;;0.01;79.51;97536.62;1635938;85;25789;-75
2022/12/05 01:49:22;;;;;;;175.60;98.82;;;;;;;0.02;79.49;97531.66;1649274;85;25380;-73
2022/12/05 01:51:52;;;;;;;180.37;101.25;;;;;;;0.03;79.47;97528.03;1650528;85;26191;-73
2022/12/05 01:54:21;;;;;;;185.10;99.50;;;;;;;0.02;79.39;97523.70;1650549;85;25823;-74
2022/12/05 01:56:53;;;;;;;182.88;99.92;;;;;;;0.02;79.39;97526.84;1647555;85;27483;-72
2022/12/05 01:59:20;;;;;;;179.10;95.92;;;;;;;-0.02;79.34;97524.50;1625525;87;25804;-74
2022/12/05 02:01:47;;;;;;;173.30;96.15;;;;;;;-0.01;79.37;97515.55;1650301;85;25817;-71
2022/12/05 02:04:14;;;;;;;183.40;98.50;;;;;;;-0.02;79.37;97511.72;1650352;85;26223;-72
2022/12/05 02:06:42;;;;;;;186.52;97.08;;;;;;;-0.02;79.39;97511.72;1650409;85;26544;-72
2022/12/05 02:09:09;;;;;;;192.80;100.25;;;;;;;-0.06;79.42;97513.81;1683507;84;27531;-73
2022/12/05 02:11:43;;;;;;;200.35;104.95;;;;;;;-0.06;79.47;97518.28;1700990;84;25826;-71
2022/12/05 02:14:23;;;;;;;199.77;106.58;;;;;;;-0.07;79.52;97517.92;1643797;85;25826;-74
2022/12/05 02:17:09;;;;;;;194.67;104.70;;;;;;;-0.05;79.61;97525.26;1701600;82;25797;-72
2022/12/05 02:19:59;;;;;;;179.42;97.40;;;;;;;-0.05;79.60;97519.95;1705634;84;25829;-72
2022/12/05 02:22:58;;;;;;;180.55;95.15;;;;;;;-0.10;79.51;97524.34;1670876;84;28101;-72
2022/12/05 02:26:07;;;;;;;172.40;91.53;;;;;;;-0.11;79.60;97529.80;1643974;87;25883;-73
2022/12/05 02:29:06;;;;;;;179.63;95.80;;;;;;;-0.13;79.58;97530.45;1660554;86;25797;-72
2022/12/05 02:31:37;;;;;;;159.70;88.62;;;;;;;-0.16;79.53;97538.69;1642087;87;26171;-74
2022/12/05 02:34:28;;;;;;;164.90;89.67;;;;;;;-0.19;79.50;97534.98;1657901;86;25825;-72
2022/12/05 02:37:06;;;;;;;182.78;97.40;;;;;;;-0.21;79.67;97532.95;1576295;91;28239;-73
2022/12/05 02:39:50;;;;;;;173.55;95.62;;;;;;;-0.25;79.60;97531.09;1542082;92;25914;-72
2022/12/05 02:42:37;;;;;;;179.07;95.53;;;;;;;-0.25;79.64;97534.23;1524717;94;25882;-75
2022/12/05 02:45:08;;;;;;;182.82;96.40;;;;;;;-0.24;79.66;97532.73;1522226;94;26396;-71
2022/12/05 02:47:40;;;;;;;186.22;96.95;;;;;;;-0.24;79.68;97530.61;1523552;94;25837;-72
2022/12/05 02:50:11;;;;;;;176.85;97.15;;;;;;;-0.26;79.66;97535.20;1526048;94;27397;-73
2022/12/05 02:52:38;;;;;;;171.35;94.40;;;;;;;-0.28;79.68;97528.72;1525028;94;25916;-71
2022/12/05 02:55:08;;;;;;;175.95;94.92;;;;;;;-0.30;79.73;97528.50;1508211;95;25843;-72
2022/12/05 02:57:38;;;;;;;173.40;96.30;;;;;;;-0.29;79.78;97527.03;1533847;93;26187;-74
2022/12/05 03:00:06;;;;;;;179.57;96.42;;;;;;;-0.29;79.81;97524.38;1534653;93;25382;-73
2022/12/05 03:02:34;;;;;;;173.78;91.65;;;;;;;-0.30;79.80;97517.89;1534601;93;27423;-73
2022/12/05 03:05:31;;;;;;;163.32;90.70;;;;;;;-0.31;79.83;97517.54;1576541;89;25821;-72
2022/12/05 03:08:02;;;;;;;162.10;88.37;;;;;;;-0.30;79.92;97520.55;1566955;91;25871;-72
2022/12/05 03:10:32;;;;;;;161.12;87.35;;;;;;;-0.31;79.99;97518.86;1606488;89;25833;-72
2022/12/05 03:13:04;;;;;;;162.03;87.20;;;;;;;-0.32;80.07;97523.82;1606495;89;25856;-72
2022/12/05 03:15:35;;;;;;;164.70;92.82;;;;;;;-0.28;80.12;97521.24;1616148;87;28330;-75
2022/12/05 03:18:19;;;;;;;171.67;91.77;;;;;;;-0.24;80.15;97518.67;1518450;93;25813;-72
2022/12/05 03:20:57;;;;;;;170.02;95.32;;;;;;;-0.22;80.10;97511.38;1519442;94;25931;-72
2022/12/05 03:23:29;;;;;;;173.68;94.80;;;;;;;-0.21;80.09;97506.42;1514769;94;25874;-73
2022/12/05 03:26:19;;;;;;;169.80;96.45;;;;;;;-0.20;80.07;97506.77;1517246;94;30827;-74
2022/12/05 03:29:10;;;;;;;168.97;94.97;;;;;;;-0.19;80.07;97508.45;1517190;94;27504;-72
2022/12/05 03:32:10;;;;;;;165.28;93.52;;;;;;;-0.21;80.09;97506.42;1469701;97;25954;-72
2022/12/05 03:34:50;;;;;;;152.02;87.42;;;;;;;-0.19;80.19;97500.00;1470347;97;25832;-71
2022/12/05 03:37:34;;;;;;;152.62;88.78;;;;;;;-0.14;80.26;97503.56;1486416;96;26604;-72
2022/12/05 03:40:21;;;;;;;150.05;88.17;;;;;;;-0.09;80.25;97503.96;1468173;97;25900;-72
2022/12/05 03:43:11;;;;;;;156.82;87.05;;;;;;;-0.06;80.16;97500.54;1487438;96;27453;-75
2022/12/05 03:45:42;;;;;;;146.95;83.67;;;;;;;-0.04;80.15;97508.36;1467737;97;25846;-75
2022/12/05 03:48:20;;;;;;;145.77;81.30;;;;;;;-0.04;80.14;97511.85;1470158;96;25850;-72
2022/12/05 03:50:49;;;;;;;145.50;82.22;;;;;;;-0.05;80.23;97514.64;1458467;98;25883;-72
2022/12/05 03:53:29;;;;;;;151.30;83.25;;;;;;;-0.07;80.32;97515.27;1458620;98;25777;-72
2022/12/05 03:56:13;;;;;;;148.80;83.42;;;;;;;-0.12;80.38;97507.73;1377639;102;28246;-72
2022/12/05 03:58:45;;;;;;;146.70;78.83;;;;;;;-0.15;80.50;97513.83;1377751;102;25878;-72
2022/12/05 04:01:15;;;;;;;137.85;78.22;;;;;;;-0.18;80.64;97521.58;1377806;102;26014;-75
2022/12/05 04:03:50;;;;;;;135.15;80.42;;;;;;;-0.14;80.77;97523.47;1377802;102;25640;-72
2022/12/05 04:06:32;;;;;;;144.20;80.30;;;;;;;-0.08;80.83;97532.17;1376338;102;25866;-72
2022/12/05 04:09:18;;;;;;;142.45;80.30;;;;;;;-0.03;80.89;97531.27;1348208;106;27487;-72
2022/12/05 04:11:52;;;;;;;133.40;73.55;;;;;;;-0.01;80.87;97538.60;1331542;106;25973;-74
2022/12/05 04:14:27;;;;;;;132.25;75.37;;;;;;;0.03;80.96;97535.99;1345623;97;25766;-74
2022/12/05 04:17:04;;;;;;;142.18;76.72;;;;;;;0.07;80.99;97533.41;1476884;93;26384;-75
2022/12/05 04:22:45;;;;;;;131.70;75.08;;;;;;;0.16;81.00;97544.98;1519172;93;27460;-72
2022/12/05 04:25:32;;;;;;;129.05;75.87;;;;;;;0.19;80.98;97540.72;1522830;94;25889;-72
2022/12/05 04:28:07;;;;;;;128.10;73.40;;;;;;;0.21;81.03;97552.03;1538862;91;25852;-73
2022/12/05 04:30:45;;;;;;;121.22;69.05;;;;;;;0.23;81.12;97550.91;1571522;90;25744;-74
2022/12/05 04:33:49;;;;;;;124.07;69.58;;;;;;;0.23;81.20;97549.59;1589555;89;25581;-73
2022/12/05 04:36:26;;;;;;;112.52;66.77;;;;;;;0.26;81.28;97553.27;1570958;90;27456;-72
2022/12/05 04:39:10;;;;;;;119.08;65.62;;;;;;;0.31;81.26;97544.88;1567866;90;25938;-72
2022/12/05 04:41:42;;;;;;;115.55;65.52;;;;;;;0.33;81.27;97549.07;1520724;94;25899;-74
2022/12/05 04:44:12;;;;;;;104.67;61.00;;;;;;;0.36;81.27;97546.10;1520843;94;26028;-72
2022/12/05 04:46:42;;;;;;;103.32;58.02;;;;;;;0.38;81.38;97543.80;1537838;91;25819;-73
2022/12/05 04:49:14;;;;;;;97.80;58.70;;;;;;;0.40;81.42;97552.46;1547075;92;27436;-73
2022/12/05 04:51:44;;;;;;;102.25;58.33;;;;;;;0.42;81.49;97546.03;1559991;86;35585;-73
2022/12/05 04:54:15;;;;;;;95.38;57.85;;;;;;;0.41;81.51;97552.80;1648022;86;25771;-74
2022/12/05 04:56:45;;;;;;;97.42;56.13;;;;;;;0.41;81.55;97552.32;1659497;86;25833;-72
2022/12/05 04:59:12;;;;;;;107.30;61.83;;;;;;;0.44;81.53;97548.05;1659606;86;25900;-72
2022/12/05 05:01:44;;;;;;;102.42;61.65;;;;;;;0.46;81.55;97546.59;1659528;86;28259;-73
2022/12/05 05:04:30;;;;;;;119.95;67.75;;;;;;;0.49;81.58;97551.58;1659577;86;34824;-72
2022/12/05 05:06:57;;;;;;;120.75;70.17;;;;;;;0.50;81.60;97547.95;1572078;90;26667;-73
2022/12/05 05:09:23;;;;;;;121.60;70.50;;;;;;;0.48;81.57;97536.17;1589170;88;25822;-73
2022/12/05 05:11:50;;;;;;;119.37;71.60;;;;;;;0.47;81.53;97534.98;1621967;87;25949;-75
2022/12/05 05:14:16;;;;;;;118.25;70.05;;;;;;;0.48;81.56;97532.19;1640407;87;27538;-74
2022/12/05 05:16:43;;;;;;;115.25;68.65;;;;;;;0.51;81.63;97538.52;1640297;87;25811;-73
2022/12/05 05:19:11;;;;;;;118.57;70.50;;;;;;;0.53;81.64;97541.03;1640465;87;25790;-71
2022/12/05 05:21:40;;;;;;;110.55;66.22;;;;;;;0.50;81.61;97536.00;1639808;87;25712;-73
2022/12/05 05:24:09;;;;;;;105.80;60.73;;;;;;;0.48;81.65;97531.34;1635393;87;25895;-72
2022/12/05 05:26:39;;;;;;;107.22;62.50;;;;;;;0.49;81.71;97526.35;1635402;87;27615;-72
2022/12/05 05:29:08;;;;;;;112.62;65.80;;;;;;;0.52;81.75;97523.41;1635328;87;25936;-71
2022/12/05 05:31:36;;;;;;;110.17;66.02;;;;;;;0.54;81.69;97521.45;1661111;84;25771;-71
2022/12/05 05:34:04;;;;;;;109.48;65.55;;;;;;;0.52;81.60;97512.79;1690246;84;25714;-72
2022/12/05 05:36:31;;;;;;;105.25;63.02;;;;;;;0.51;81.58;97509.30;1690307;84;25811;-74
2022/12/05 05:39:00;;;;;;;110.48;65.57;;;;;;;0.53;81.58;97514.47;1690404;84;28079;-73
2022/12/05 05:41:33;;;;;;;107.43;63.92;;;;;;;0.48;81.47;97501.64;1690207;84;25738;-72
2022/12/05 05:44:02;;;;;;;108.97;65.52;;;;;;;0.48;81.50;97516.73;1690341;84;25791;-72
2022/12/05 05:46:32;;;;;;;104.10;64.75;;;;;;;0.49;81.63;97517.05;1682943;84;26369;-71
2022/12/05 05:48:59;;;;;;;108.15;64.37;;;;;;;0.50;81.61;97507.62;1701872;83;25885;-72
2022/12/05 05:51:28;;;;;;;106.87;65.37;;;;;;;0.43;81.49;97511.02;1690573;83;27416;-72
2022/12/05 05:53:57;;;;;;;105.15;65.05;;;;;;;0.35;81.47;97512.59;1719592;81;25847;-72
2022/12/05 05:56:23;;;;;;;102.70;63.63;;;;;;;0.35;81.54;97523.22;1688388;84;25842;-73
2022/12/05 05:59:00;;;;;;;98.92;60.28;;;;;;;0.35;81.47;97523.70;1689150;84;26169;-74
2022/12/05 06:01:28;;;;;;;103.83;59.73;;;;;;;0.34;81.41;97516.23;1635285;87;25797;-72
2022/12/05 06:03:55;;;;;;;98.25;58.65;;;;;;;0.34;81.34;97522.02;1686710;82;27440;-71
2022/12/05 06:06:23;;;;;;;97.37;60.65;;;;;;;0.31;81.30;97524.47;1710137;82;25742;-72
2022/12/05 06:08:49;;;;;;;95.75;60.12;;;;;;;0.28;81.29;97516.79;1710177;82;25801;-72
2022/12/05 06:11:23;;;;;;;94.55;58.58;;;;;;;0.28;81.25;97519.94;1710226;82;25806;-73
2022/12/05 06:13:50;;;;;;;87.55;55.78;;;;;;;0.26;81.23;97514.77;1649393;85;25807;-72
2022/12/05 06:16:18;;;;;;;95.77;58.02;;;;;;;0.23;81.18;97513.75;1649386;85;28198;-71
2022/12/05 06:18:44;;;;;;;93.72;56.30;;;;;;;0.23;81.20;97521.72;1649314;85;25793;-75
2022/12/05 06:21:11;;;;;;;93.65;56.33;;;;;;;0.23;81.21;97528.35;1649280;85;25779;-73
2022/12/05 06:23:38;;;;;;;88.62;54.95;;;;;;;0.21;81.22;97530.30;1657222;85;25757;-72
2022/12/05 06:26:09;;;;;;;95.42;57.40;;;;;;;0.20;81.25;97535.27;1659582;85;25801;-73
2022/12/05 06:28:38;;;;;;;104.97;62.90;;;;;;;0.18;81.36;97530.59;1656695;85;27436;-74
2022/12/05 06:31:15;;;;;;;105.47;64.97;;;;;;;0.19;81.53;97534.92;1659605;85;26091;-72
2022/12/05 06:33:42;;;;;;;101.00;62.88;;;;;;;0.22;81.62;97539.95;1607382;89;25863;-75
2022/12/05 06:36:16;;;;;;;107.70;65.97;;;;;;;0.27;81.72;97547.46;1607532;89;25801;-73
2022/12/05 06:38:43;;;;;;;110.90;64.37;;;;;;;0.30;81.74;97553.33;1607365;89;25796;-74
2022/12/05 06:41:14;;;;;;;107.32;66.15;;;;;;;0.33;81.74;97550.39;1607461;89;28029;-72
2022/12/05 06:43:41;;;;;;;103.60;62.08;;;;;;;0.35;81.68;97547.11;1607327;89;25884;-73
2022/12/05 06:46:11;;;;;;;107.43;62.03;;;;;;;0.38;81.66;97549.11;1607453;89;25802;-72
2022/12/05 06:48:38;;;;;;;110.05;63.85;;;;;;;0.40;81.64;97555.11;1607423;89;25930;-72
2022/12/05 06:51:10;;;;;;;117.60;66.00;;;;;;;0.36;81.58;97554.06;1607170;89;25761;-73
2022/12/05 06:53:37;;;;;;;110.50;64.22;;;;;;;0.33;81.58;97554.37;1607852;87;27442;-71
2022/12/05 06:58:37;;;;;;;121.22;68.28;;;;;;;0.32;81.71;97555.36;1565622;90;25996;-72
2022/12/05 07:03:48;;;;;;;118.55;67.10;;;;;;;0.36;81.70;97562.03;1567097;90;25916;-72
2022/12/05 07:06:16;;;;;;;107.32;65.62;;;;;;;0.37;81.61;97568.19;1567134;90;28233;-74
2022/12/05 07:08:43;;;;;;;111.37;65.62;;;;;;;0.35;81.53;97566.19;1567271;90;25848;-72
2022/12/05 07:11:11;;;;;;;106.90;63.73;;;;;;;0.32;81.50;97564.66;1666273;82;25863;-71
2022/12/05 07:13:37;;;;;;;110.28;65.78;;;;;;;0.35;81.59;97568.84;1704013;84;25893;-73
2022/12/05 07:16:05;;;;;;;113.50;64.72;;;;;;;0.38;81.66;97569.02;1685918;82;25508;-72
2022/12/05 07:18:33;;;;;;;110.30;65.95;;;;;;;0.36;81.66;97575.31;1680163;82;27423;-74
2022/12/05 07:21:03;;;;;;;112.30;68.55;;;;;;;0.39;81.76;97578.17;1699136;82;25738;-73
2022/12/05 07:23:30;;;;;;;115.67;68.05;;;;;;;0.41;81.74;97576.71;1681476;82;25790;-72
2022/12/05 07:25:57;;;;;;;108.07;65.05;;;;;;;0.43;81.81;97576.08;1683798;82;25577;-73
2022/12/05 07:28:24;;;;;;;114.95;65.03;;;;;;;0.48;81.94;97575.17;1687784;82;25797;-72
2022/12/05 07:31:02;;;;;;;103.87;61.85;;;;;;;0.55;81.98;97576.25;1707843;82;27391;-72
2022/12/05 07:33:28;;;;;;;103.17;62.15;;;;;;;0.61;82.00;97581.81;1715576;82;26487;-73
2022/12/05 07:36:12;;;;;;;106.00;64.95;;;;;;;0.69;82.07;97579.77;1710442;82;25787;-72
2022/12/05 07:38:39;;;;;;;108.90;65.42;;;;;;;0.75;82.09;97576.52;1669151;84;25862;-72
2022/12/05 07:41:11;;;;;;;109.95;62.93;;;;;;;0.77;82.07;97563.93;1673636;84;25930;-72
2022/12/05 07:43:37;;;;;;;103.53;60.67;;;;;;;0.81;82.02;97561.33;1584074;89;27420;-74
2022/12/05 07:46:06;;;;;;;116.00;65.03;;;;;;;0.87;82.03;97563.39;1584280;89;25974;-73
2022/12/05 07:48:33;;;;;;;117.08;71.25;;;;;;;0.92;82.01;97561.14;1555005;91;26404;-72
2022/12/05 07:51:02;;;;;;;113.25;65.45;;;;;;;0.97;81.99;97564.17;1554977;91;25919;-73
2022/12/05 07:53:31;;;;;;;133.63;77.45;;;;;;;1.01;81.99;97568.22;1554946;92;25790;-72
2022/12/05 07:56:04;;;;;;;146.05;87.70;;;;;;;1.04;81.99;97571.08;1581560;88;27447;-72
2022/12/05 07:58:32;;;;;;;150.68;89.00;;;;;;;1.06;82.01;97578.42;1594420;88;25849;-72
2022/12/05 08:01:11;;;;;;;145.47;86.55;;;;;;;1.09;82.04;97576.77;1593598;88;26343;-72
2022/12/05 08:03:38;;;;;;;165.40;95.65;;;;;;;1.13;82.12;97570.68;1594355;88;26224;-74
2022/12/05 08:06:08;;;;;;;185.55;104.53;;;;;;;1.19;82.14;97554.14;1594286;88;25917;-74
2022/12/05 08:08:36;;;;;;;187.40;107.63;;;;;;;1.25;82.16;97554.86;1591788;88;27508;-73
2022/12/05 08:11:13;;;;;;;174.77;108.25;;;;;;;1.28;82.16;97551.42;1594308;88;26179;-72
2022/12/05 08:13:40;;;;;;;174.07;106.32;;;;;;;1.34;82.22;97548.14;1594611;88;25892;-72
2022/12/05 08:16:11;;;;;;;165.65;100.15;;;;;;;1.41;82.27;97541.75;1594605;88;25769;-73
2022/12/05 08:18:38;;;;;;;156.00;94.45;;;;;;;1.51;82.35;97539.01;1594762;88;25840;-73
2022/12/05 08:21:09;;;;;;;147.53;89.13;;;;;;;1.59;82.42;97532.42;1583737;88;28294;-72
2022/12/05 08:23:37;;;;;;;169.07;92.57;;;;;;;1.71;82.57;97532.04;1567425;89;25885;-72
2022/12/05 08:26:07;;;;;;;147.30;86.65;;;;;;;1.84;82.68;97540.13;1564702;90;25431;-72
2022/12/05 08:28:34;;;;;;;139.03;79.55;;;;;;;1.95;82.74;97542.05;1537786;91;25800;-72
2022/12/05 08:31:09;;;;;;;123.18;71.17;;;;;;;2.04;82.72;97536.32;1563905;91;25749;-74
2022/12/05 08:33:36;;;;;;;102.97;61.37;;;;;;;2.12;82.67;97540.37;1554765;92;28209;-72
2022/12/05 08:36:06;;;;;;;100.00;57.48;;;;;;;2.18;82.62;97530.41;1600254;88;25873;-72
2022/12/05 08:38:34;;;;;;;111.28;63.83;;;;;;;2.25;82.56;97529.30;1617393;88;25807;-73
2022/12/05 08:41:02;;;;;;;144.50;78.17;;;;;;;2.31;82.50;97542.82;1627863;87;26571;-73
2022/12/05 08:43:30;;;;;;;140.57;81.57;;;;;;;2.35;82.39;97541.53;1593888;88;25858;-72
2022/12/05 08:45:58;;;;;;;136.47;80.47;;;;;;;2.42;82.39;97547.05;1648936;85;27464;-72
2022/12/05 08:48:27;;;;;;;146.60;82.05;;;;;;;2.49;82.43;97539.63;1648917;86;25962;-73
2022/12/05 08:50:53;;;;;;;132.22;78.05;;;;;;;2.60;82.45;97537.67;1634600;86;25967;-72
2022/12/05 08:53:20;;;;;;;119.33;70.83;;;;;;;2.69;82.41;97534.05;1697621;82;25788;-72
2022/12/05 08:55:47;;;;;;;123.90;72.03;;;;;;;2.74;82.28;97544.59;1697741;82;25298;-73
2022/12/05 08:58:14;;;;;;;130.07;73.20;;;;;;;2.81;82.26;97543.44;1697663;84;27402;-72
2022/12/05 09:00:41;;;;;;;113.05;68.25;;;;;;;2.88;82.22;97535.16;1697675;82;25675;-72
2022/12/05 09:03:10;;;;;;;111.12;67.92;;;;;;;2.93;82.16;97535.50;1697329;82;25814;-75
2022/12/05 09:05:38;;;;;;;105.65;64.87;;;;;;;2.98;82.09;97539.86;1697643;82;26487;-75
2022/12/05 09:08:05;;;;;;;112.47;66.10;;;;;;;3.03;82.07;97541.53;1697796;84;26522;-74
2022/12/05 09:10:32;;;;;;;100.25;64.20;;;;;;;3.17;82.17;97539.59;1697506;82;28452;-73
2022/12/05 09:12:59;;;;;;;126.38;73.92;;;;;;;3.38;82.33;97541.00;1697374;82;25911;-75
2022/12/05 09:15:26;;;;;;;114.50;68.17;;;;;;;3.60;82.38;97537.20;1697696;82;25780;-73
2022/12/05 09:17:52;;;;;;;122.53;71.30;;;;;;;3.83;82.23;97540.06;1697846;82;25767;-75
2022/12/05 09:20:19;;;;;;;107.15;66.28;;;;;;;4.06;82.10;97542.07;1697756;82;25760;-72
2022/12/05 09:22:46;;;;;;;116.30;67.60;;;;;;;4.26;81.75;97544.72;1697546;82;27463;-73
2022/12/05 09:25:13;;;;;;;122.58;73.45;;;;;;;4.31;81.26;97543.73;1697481;82;25803;-72
2022/12/05 09:27:39;;;;;;;111.00;66.15;;;;;;;4.39;81.21;97539.70;1697791;82;25784;-73
2022/12/05 09:30:08;;;;;;;105.50;64.40;;;;;;;4.47;81.09;97543.69;1697617;82;25810;-74
2022/12/05 09:32:34;;;;;;;110.57;66.10;;;;;;;4.60;81.06;97539.16;1697779;82;25720;-73
2022/12/05 09:35:01;;;;;;;101.87;64.27;;;;;;;4.76;81.26;97537.78;1697707;82;28168;-73
2022/12/05 09:37:28;;;;;;;90.53;56.33;;;;;;;4.95;81.19;97532.55;1800401;77;25804;-72
2022/12/05 09:39:54;;;;;;;79.40;49.65;;;;;;;5.12;81.02;97515.91;1841747;77;25841;-74
2022/12/05 09:42:42;;;;;;;78.87;48.65;;;;;;;5.28;80.88;97520.69;1841791;77;25696;-72
2022/12/05 09:45:38;;;;;;;72.53;46.23;;;;;;;5.43;80.72;97526.14;1829708;77;25676;-73
2022/12/05 09:48:15;;;;;;;70.35;43.38;;;;;;;5.61;80.50;97527.19;1815233;77;28389;-72
2022/12/05 09:51:01;;;;;;;62.10;39.45;;;;;;;5.73;80.26;97523.92;1804770;77;25206;-72
2022/12/05 09:53:33;;;;;;;59.35;37.03;;;;;;;5.85;79.92;97521.66;1823527;77;25674;-75
2022/12/05 09:56:23;;;;;;;57.67;34.03;;;;;;;5.92;79.76;97517.27;1805063;77;26180;-75
2022/12/05 09:58:56;;;;;;;61.75;36.48;;;;;;;5.90;79.49;97508.61;1795072;77;25615;-72
2022/12/05 10:01:47;;;;;;;62.80;36.73;;;;;;;5.89;79.48;97509.62;1800353;77;27604;-73
2022/12/05 10:04:34;;;;;;;66.47;40.40;;;;;;;5.97;79.58;97507.37;1810387;77;25750;-73
2022/12/05 10:07:30;;;;;;;59.38;36.05;;;;;;;6.06;79.47;97501.75;1802811;77;25686;-72
2022/12/05 10:10:23;;;;;;;63.98;34.00;;;;;;;6.14;79.47;97492.83;1794782;77;25653;-73
2022/12/05 10:13:07;;;;;;;52.40;30.62;;;;;;;6.25;79.47;97488.88;1828448;77;26729;-75
2022/12/05 10:15:55;;;;;;;41.37;26.93;;;;;;;6.36;79.40;97491.94;1821721;77;27361;-74
2022/12/05 10:18:38;;;;;;;41.90;25.97;;;;;;;6.47;79.32;97489.31;1774702;80;26349;-73
2022/12/05 10:21:13;;;;;;;44.75;26.70;;;;;;;6.60;79.14;97484.16;1776473;80;25863;-74
2022/12/05 10:24:01;;;;;;;46.10;27.48;;;;;;;6.70;79.05;97482.02;1773665;80;26108;-72
2022/12/05 10:26:45;;;;;;;48.38;29.05;;;;;;;6.88;79.03;97470.09;1779331;80;25869;-75
2022/12/05 10:29:28;;;;;;;50.88;28.80;;;;;;;7.05;78.78;97470.19;1708429;83;27420;-74
2022/12/05 10:32:17;;;;;;;51.85;28.32;;;;;;;7.26;78.58;97467.55;1635660;87;25743;-73
2022/12/05 10:34:45;;;;;;;40.60;23.60;;;;;;;7.59;78.64;97470.63;1619605;87;25818;-72
2022/12/05 10:37:19;;;;;;;43.33;24.57;;;;;;;7.93;78.43;97465.37;1619364;87;25588;-73
2022/12/05 10:39:47;;;;;;;37.25;22.32;;;;;;;8.26;78.13;97464.80;1579767;90;25837;-75
2022/12/05 10:42:28;;;;;;;34.40;21.20;;;;;;;8.60;77.86;97462.69;1579845;90;27434;-75
2022/12/05 10:45:05;;;;;;;34.83;22.05;;;;;;;8.93;77.42;97458.34;1578336;90;25587;-74
2022/12/05 10:47:33;;;;;;;30.90;20.02;;;;;;;9.30;76.94;97450.28;1515071;93;25865;-73
2022/12/05 10:50:05;;;;;;;28.47;18.23;;;;;;;9.64;76.25;97452.58;1519745;93;25888;-76
2022/12/05 10:52:32;;;;;;;24.95;16.67;;;;;;;9.88;75.56;97443.08;1532422;93;25831;-73
2022/12/05 10:55:03;;;;;;;26.82;17.92;;;;;;;10.07;75.19;97444.95;1532282;93;27504;-73
2022/12/05 10:57:30;;;;;;;29.50;18.90;;;;;;;10.20;74.58;97443.62;1532577;93;25827;-73
2022/12/05 11:00:00;;;;;;;35.75;21.95;;;;;;;10.32;74.38;97445.18;1532404;93;25894;-73
2022/12/05 11:02:33;;;;;;;31.25;20.62;;;;;;;10.51;74.27;97444.84;1529681;93;25965;-73
2022/12/05 11:05:00;;;;;;;34.65;20.95;;;;;;;10.75;73.70;97446.34;1532214;93;25605;-72
2022/12/05 11:07:37;;;;;;;30.02;18.52;;;;;;;10.79;72.87;97431.91;1545588;92;27478;-73
2022/12/05 11:10:24;;;;;;;27.58;17.50;;;;;;;10.69;72.38;97431.53;1548529;92;25844;-75
2022/12/05 11:12:51;;;;;;;21.70;15.48;;;;;;;10.61;72.09;97430.41;1548517;92;25948;-73
2022/12/05 11:15:24;;;;;;;21.97;16.23;;;;;;;10.53;71.77;97414.42;1556709;91;25586;-73
2022/12/05 11:17:54;;;;;;;23.83;15.95;;;;;;;10.41;71.54;97413.72;1556308;90;25829;-74
2022/12/05 11:20:26;;;;;;;27.20;17.52;;;;;;;10.33;71.56;97409.06;1580791;90;28443;-75
2022/12/05 11:22:58;;;;;;;27.07;18.10;;;;;;;10.32;71.56;97406.89;1614905;87;25847;-73
2022/12/05 11:25:29;;;;;;;26.17;18.32;;;;;;;10.28;71.28;97402.94;1606533;88;25499;-73
2022/12/05 11:28:19;;;;;;;34.70;21.40;;;;;;;10.30;71.30;97406.27;1617120;84;26336;-73
2022/12/05 11:31:02;;;;;;;38.85;27.52;;;;;;;10.31;71.04;97411.14;1655250;86;26840;-73
2022/12/05 11:33:33;;;;;;;30.55;21.70;;;;;;;10.32;70.91;97409.59;1627279;87;27462;-72
2022/12/05 11:36:21;;;;;;;23.52;16.42;;;;;;;10.33;70.88;97411.77;1685191;81;25755;-73
2022/12/05 11:38:49;;;;;;;19.15;14.87;;;;;;;10.36;70.63;97406.79;1764421;80;25730;-76
2022/12/05 11:41:41;;;;;;;19.85;14.05;;;;;;;10.51;70.80;97411.09;1729296;81;26088;-73
2022/12/05 11:44:34;;;;;;;25.95;17.10;;;;;;;10.65;70.51;97404.12;1710015;81;25956;-72
2022/12/05 11:47:26;;;;;;;26.25;16.55;;;;;;;10.91;70.46;97408.61;1670148;83;27435;-75
2022/12/05 11:50:09;;;;;;;23.83;15.93;;;;;;;11.23;70.19;97418.16;1682616;83;25276;-73